Diamond Island, Maine
Current Conditions -  °F | °C
As of 4:51 PM on Thursday 18 Dec 2014 (Local Time) from KPWM Reporting Station
Overcast Overcast  
Wind Chill: 34°   Ceiling: 3900
Heat Index: 40°   Visibility: 10mi
Dew Point: 29°   Wind: 8mph
Humidity: 65%   Direction: 320°NW
Pressure: 29.75"   Gusts: NA
Location:  43.6801°N, 70.1969°W
Report Text: KPWM 182151Z 32007KT 10SM OVC039 04/M02 A2975 RMK AO2 SLP074 T00441017
Loading
Personal Weather Stations






























Interactive Weather Map New forecast layout! Learn more

10-Day Weather Forecast

Advertisements
Track Severe Weather on mobile